Time;durP1;ratioP1;P1;durP2;ratioP2;P2;SDS_P1;SDS_P2;PMS_P1;PMS_P2;Temp;Humidity;BMP_temperature;BMP_pressure;BME280_temperature;BME280_humidity;BME280_pressure;Samples;Min_cycle;Max_cycle;Signal;HPM_P1;HPM_P2
2022/10/26 00:00:32;;;;;;;;;;;;;;;19.11;70.92;101140.09;2323740;76;51479;-75
2022/10/26 00:03:34;;;;;;;;;;;;;;;19.10;70.92;101133.55;2323657;76;50265;-75
2022/10/26 00:06:35;;;;;;;;;;;;;;;19.09;70.90;101142.61;2299509;76;51021;-76
2022/10/26 00:09:37;;;;;;;;;;;;;;;19.10;71.37;101139.73;2299407;76;51466;-75
2022/10/26 00:12:39;;;;;;;;;;;;;;;19.11;71.79;101136.55;2323315;76;50351;-74
2022/10/26 00:15:41;;;;;;;;;;;;;;;19.15;71.70;101139.22;2324944;76;51550;-74
2022/10/26 00:18:42;;;;;;;;;;;;;;;19.13;71.76;101138.04;2315672;76;49644;-75
2022/10/26 00:21:47;;;;;;;;;;;;;;;19.16;71.40;101139.54;2351361;74;50685;-74
2022/10/26 00:24:48;;;;;;;;;;;;;;;19.18;71.35;101131.33;2341576;74;51548;-75
2022/10/26 00:27:50;;;;;;;;;;;;;;;19.21;71.35;101137.17;2316083;77;50190;-75
2022/10/26 00:30:51;;;;;;;;;;;;;;;19.21;71.15;101139.85;2345395;75;49580;-74
2022/10/26 00:33:53;;;;;;;;;;;;;;;19.20;71.38;101148.92;2345237;75;50618;-75
2022/10/26 00:36:55;;;;;;;;;;;;;;;19.21;71.82;101151.09;2316016;77;50291;-75
2022/10/26 00:39:56;;;;;;;;;;;;;;;19.16;71.43;101152.95;2317950;75;50371;-75
2022/10/26 00:43:00;;;;;;;;;;;;;;;19.14;71.32;101157.68;2278484;75;51389;-75
2022/10/26 00:46:01;;;;;;;;;;;;;;;19.14;71.23;101163.05;2298006;76;25212;-75
2022/10/26 00:49:13;;;;;;;;;;;;;;;19.15;71.24;101170.07;2328411;76;51196;-75
2022/10/26 00:52:15;;;;;;;;;;;;;;;19.18;71.26;101162.17;2327662;75;50427;-75
2022/10/26 00:55:20;;;;;;;;;;;;;;;19.12;71.76;101165.06;2293194;76;51010;-75
2022/10/26 00:58:20;;;;;;;;;;;;;;;19.16;71.54;101161.00;2327713;76;22198;-75
2022/10/26 01:01:22;;;;;;;;;;;;;;;19.13;71.65;101154.14;2327501;76;50391;-76
2022/10/26 01:04:23;;;;;;;;;;;;;;;19.15;71.53;101153.97;2327250;75;50198;-75
2022/10/26 01:07:25;;;;;;;;;;;;;;;19.12;71.86;101149.80;2293764;76;51927;-75
2022/10/26 01:10:26;;;;;;;;;;;;;;;19.14;71.93;101155.00;2325636;75;50307;-75
2022/10/26 01:13:28;;;;;;;;;;;;;;;19.14;71.90;101149.63;2322536;75;50322;-76
2022/10/26 01:16:49;;;;;;;;;;;;;;;19.15;71.99;101153.97;2321824;76;50513;-75
2022/10/26 01:20:10;;;;;;;;;;;;;;;19.15;71.99;101156.14;2297476;76;50998;-75
2022/10/26 01:23:14;;;;;;;;;;;;;;;19.14;71.70;101152.31;2321582;76;51514;-75
2022/10/26 01:26:26;;;;;;;;;;;;;;;19.17;71.40;101149.79;2321672;76;51491;-75
2022/10/26 01:29:47;;;;;;;;;;;;;;;19.14;71.27;101143.76;2321015;76;50630;-74
2022/10/26 01:33:07;;;;;;;;;;;;;;;19.14;71.81;101151.80;2295981;76;49644;-74
2022/10/26 01:36:16;;;;;;;;;;;;;;;19.14;71.96;101141.59;2321466;76;51617;-74
2022/10/26 01:39:19;;;;;;;;;;;;;;;19.18;71.77;101134.84;2319416;76;50501;-74
2022/10/26 01:42:21;;;;;;;;;;;;;;;19.16;71.78;101131.48;2315324;76;50446;-75
2022/10/26 01:45:22;;;;;;;;;;;;;;;19.17;71.72;101131.84;2298977;76;51784;-75
2022/10/26 01:48:24;;;;;;;;;;;;;;;19.14;71.60;101127.66;2299392;76;50728;-75
2022/10/26 01:51:26;;;;;;;;;;;;;;;19.14;71.33;101129.52;2323745;76;50303;-75
2022/10/26 01:54:28;;;;;;;;;;;;;;;19.13;71.24;101129.99;2323440;76;50303;-75
2022/10/26 01:57:30;;;;;;;;;;;;;;;19.14;71.18;101129.52;2299491;76;50966;-75
2022/10/26 02:00:31;;;;;;;;;;;;;;;19.10;71.19;101129.01;2323592;76;51671;-75
2022/10/26 02:03:37;;;;;;;;;;;;;;;19.10;71.09;101127.67;2323589;76;51468;-75
2022/10/26 02:06:59;;;;;;;;;;;;;;;19.09;71.07;101124.67;2297557;76;52521;-75
2022/10/26 02:10:19;;;;;;;;;;;;;;;19.09;71.06;101118.47;2288286;76;51889;-75
2022/10/26 02:13:37;;;;;;;;;;;;;;;19.08;71.03;101114.93;2322586;76;50400;-75
2022/10/26 02:16:52;;;;;;;;;;;;;;;19.12;70.90;101119.46;2324280;75;51531;-75
2022/10/26 02:20:02;;;;;;;;;;;;;;;19.12;70.89;101122.97;2324069;76;51510;-75
2022/10/26 02:23:04;;;;;;;;;;;;;;;19.10;71.10;101118.28;2311603;76;51355;-75
2022/10/26 02:26:06;;;;;;;;;;;;;;;19.13;70.88;101113.90;2323914;76;51558;-75
2022/10/26 02:29:09;;;;;;;;;;;;;;;19.08;71.04;101108.22;2323976;76;51608;-75
2022/10/26 02:32:11;;;;;;;;;;;;;;;19.05;71.02;101105.90;2324041;76;50694;-75
2022/10/26 02:35:12;;;;;;;;;;;;;;;19.07;71.06;101115.13;2311426;76;50988;-75
2022/10/26 02:38:14;;;;;;;;;;;;;;;19.09;71.01;101113.11;2324010;76;51934;-74
2022/10/26 02:41:15;;;;;;;;;;;;;;;19.08;70.83;101108.22;2323373;76;51514;-75
2022/10/26 02:44:22;;;;;;;;;;;;;;;19.09;70.98;101107.74;2322184;76;51527;-75
2022/10/26 02:47:25;;;;;;;;;;;;;;;19.10;70.90;101112.09;2296213;76;51034;-74
2022/10/26 02:50:28;;;;;;;;;;;;;;;19.11;70.90;101124.00;2297752;76;50104;-74
2022/10/26 02:53:33;;;;;;;;;;;;;;;19.08;70.79;101126.17;2321595;76;50549;-75
2022/10/26 02:56:36;;;;;;;;;;;;;;;19.08;70.87;101113.59;2321869;76;51539;-75
2022/10/26 02:59:38;;;;;;;;;;;;;;;19.08;71.05;101124.83;2297431;76;50133;-76
2022/10/26 03:02:41;;;;;;;;;;;;;;;19.07;71.02;101122.66;2321812;76;50457;-75
2022/10/26 03:05:43;;;;;;;;;;;;;;;19.08;70.91;101124.83;2321704;76;51630;-75
2022/10/26 03:08:44;;;;;;;;;;;;;;;19.08;70.92;101122.14;2322911;76;50366;-76
2022/10/26 03:11:46;;;;;;;;;;;;;;;19.06;70.83;101130.39;2323318;76;51516;-75
2022/10/26 03:14:47;;;;;;;;;;;;;;;19.05;70.79;101123.84;2350569;74;51397;-74
2022/10/26 03:17:49;;;;;;;;;;;;;;;19.07;70.89;101123.17;2324142;76;50290;-76
2022/10/26 03:20:50;;;;;;;;;;;;;;;19.04;70.92;101124.87;2350816;74;50389;-75
2022/10/26 03:23:52;;;;;;;;;;;;;;;19.06;71.07;101125.02;2323661;75;51734;-75
2022/10/26 03:26:54;;;;;;;;;;;;;;;19.05;71.13;101122.50;2351214;74;50755;-75
2022/10/26 03:29:56;;;;;;;;;;;;;;;19.10;71.26;101128.18;2350839;75;51541;-75
2022/10/26 03:32:58;;;;;;;;;;;;;;;19.10;71.50;101133.55;2350517;74;50351;-74
2022/10/26 03:35:59;;;;;;;;;;;;;;;19.09;71.39;101121.98;2311514;76;50058;-75
2022/10/26 03:39:01;;;;;;;;;;;;;;;19.10;71.06;101125.50;2337536;74;50467;-75
2022/10/26 03:42:03;;;;;;;;;;;;;;;19.10;71.05;101134.38;2298164;76;50140;-75
2022/10/26 03:45:05;;;;;;;;;;;;;;;19.06;70.90;101127.70;2297372;76;50401;-75
2022/10/26 03:48:06;;;;;;;;;;;;;;;19.09;70.89;101130.55;2272108;76;51608;-76
2022/10/26 03:51:08;;;;;;;;;;;;;;;19.06;70.75;101125.02;2321898;76;50415;-74
2022/10/26 03:54:09;;;;;;;;;;;;;;;19.05;70.65;101135.91;2321787;76;50361;-74
2022/10/26 03:57:11;;;;;;;;;;;;;;;19.04;70.72;101124.87;2321859;76;50742;-75
2022/10/26 04:00:17;;;;;;;;;;;;;;;19.01;70.78;101117.14;2272360;76;52668;-75
2022/10/26 04:03:16;;;;;;;;;;;;;;;19.01;70.86;101127.88;2296856;76;22447;-76
2022/10/26 04:06:18;;;;;;;;;;;;;;;19.03;70.87;101122.66;2321907;76;51571;-74
2022/10/26 04:09:19;;;;;;;;;;;;;;;19.04;70.71;101124.36;2322729;76;51475;-75
2022/10/26 04:12:21;;;;;;;;;;;;;;;19.05;70.79;101133.23;2307981;76;52464;-76
2022/10/26 04:15:22;;;;;;;;;;;;;;;19.06;70.73;101131.73;2350572;74;50392;-75
2022/10/26 04:18:24;;;;;;;;;;;;;;;19.05;70.65;101134.57;2323977;76;50375;-75
2022/10/26 04:21:26;;;;;;;;;;;;;;;19.04;70.65;101134.25;2324240;76;50355;-75
2022/10/26 04:24:27;;;;;;;;;;;;;;;19.06;70.71;101140.25;2301253;76;50065;-75
2022/10/26 04:27:29;;;;;;;;;;;;;;;19.01;70.67;101136.78;2350747;74;51523;-75
2022/10/26 04:30:30;;;;;;;;;;;;;;;19.03;70.72;101137.92;2324099;76;51501;-75
2022/10/26 04:33:32;;;;;;;;;;;;;;;19.05;70.56;101133.23;2323907;76;50716;-75
2022/10/26 04:36:34;;;;;;;;;;;;;;;19.03;70.65;101136.59;2300776;76;50961;-75
2022/10/26 04:39:36;;;;;;;;;;;;;;;19.04;71.03;101135.08;2323843;76;50479;-75
2022/10/26 04:42:43;;;;;;;;;;;;;;;19.07;71.10;101137.41;2324028;76;50646;-76
2022/10/26 04:45:45;;;;;;;;;;;;;;;19.09;71.10;101143.95;2323896;76;50200;-77
2022/10/26 04:48:48;;;;;;;;;;;;;;;19.08;71.12;101139.07;2311593;76;52071;-76
2022/10/26 04:51:50;;;;;;;;;;;;;;;19.06;70.73;101142.45;2324179;75;50756;-76
2022/10/26 04:54:51;;;;;;;;;;;;;;;19.07;70.67;101143.28;2323815;75;51493;-75
2022/10/26 04:57:53;;;;;;;;;;;;;;;19.08;70.59;101144.44;2323991;76;51522;-75
2022/10/26 05:00:54;;;;;;;;;;;;;;;19.09;70.92;101139.94;2323640;76;52557;-76
2022/10/26 05:03:56;;;;;;;;;;;;;;;19.07;70.95;101137.41;2323692;76;51477;-76
2022/10/26 05:06:57;;;;;;;;;;;;;;;19.07;71.15;101130.70;2323963;75;50278;-73
2022/10/26 05:09:59;;;;;;;;;;;;;;;19.04;71.28;101139.11;2320782;76;50387;-75
2022/10/26 05:13:01;;;;;;;;;;;;;;;19.02;70.70;101132.24;2323987;76;50735;-75
2022/10/26 05:16:02;;;;;;;;;;;;;;;19.00;70.79;101139.63;2350350;74;53398;-74
2022/10/26 05:19:04;;;;;;;;;;;;;;;18.98;70.69;101130.91;2350574;75;51448;-75
2022/10/26 05:22:05;;;;;;;;;;;;;;;19.04;71.00;101135.59;2350675;75;54193;-76
2022/10/26 05:25:07;;;;;;;;;;;;;;;19.03;71.11;101136.08;2311219;76;52949;-75
2022/10/26 05:28:12;;;;;;;;;;;;;;;19.03;71.22;101136.59;2350803;75;51476;-75
2022/10/26 05:31:12;;;;;;;;;;;;;;;19.03;71.26;101137.92;2324121;76;22387;-75
2022/10/26 05:34:14;;;;;;;;;;;;;;;19.04;71.14;101139.11;2350338;74;50659;-74
2022/10/26 05:37:15;;;;;;;;;;;;;;;19.05;71.03;101139.42;2321757;75;50899;-75
2022/10/26 05:40:17;;;;;;;;;;;;;;;19.02;70.92;101132.24;2296286;76;51511;-75
2022/10/26 05:43:19;;;;;;;;;;;;;;;19.04;70.87;101137.77;2323375;76;51472;-75
2022/10/26 05:46:20;;;;;;;;;;;;;;;19.05;70.72;101143.96;2323558;76;50659;-73
2022/10/26 05:49:22;;;;;;;;;;;;;;;19.05;70.72;101132.72;2304745;76;52604;-75
2022/10/26 05:52:23;;;;;;;;;;;;;;;19.03;70.99;101135.24;2299267;76;52507;-74
2022/10/26 05:55:25;;;;;;;;;;;;;;;19.05;70.95;101138.59;2323268;76;51447;-74
2022/10/26 05:58:27;;;;;;;;;;;;;;;19.02;71.02;101145.14;2299475;76;51443;-75
2022/10/26 06:01:36;;;;;;;;;;;;;;;19.04;70.91;101143.64;2262179;78;51756;-76
2022/10/26 06:04:38;;;;;;;;;;;;;;;19.03;70.88;101141.44;2287539;75;50463;-75
2022/10/26 06:07:40;;;;;;;;;;;;;;;19.02;70.88;101142.97;2320897;76;51488;-75
2022/10/26 06:10:42;;;;;;;;;;;;;;;18.99;70.62;101154.05;2301846;76;50846;-75
2022/10/26 06:13:43;;;;;;;;;;;;;;;18.95;70.52;101147.35;2323249;76;49668;-75
2022/10/26 06:16:50;;;;;;;;;;;;;;;18.93;70.59;101153.73;2350503;74;50324;-75
2022/10/26 06:19:56;;;;;;;;;;;;;;;18.93;70.65;101155.08;2324047;74;50443;-74
2022/10/26 06:23:02;;;;;;;;;;;;;;;18.92;70.64;101150.70;2343381;75;51605;-74
2022/10/26 06:26:05;;;;;;;;;;;;;;;18.92;70.57;101156.58;2343932;75;50764;-74
2022/10/26 06:29:08;;;;;;;;;;;;;;;18.92;70.59;101155.23;2368872;75;51281;-76
2022/10/26 06:32:10;;;;;;;;;;;;;;;18.91;70.52;101155.75;2368813;75;51581;-74
2022/10/26 06:35:13;;;;;;;;;;;;;;;18.93;70.47;101158.23;2368777;75;50231;-75
2022/10/26 06:38:16;;;;;;;;;;;;;;;18.92;70.48;101159.26;2329379;76;49684;-74
2022/10/26 06:41:21;;;;;;;;;;;;;;;18.92;70.47;101164.11;2323191;76;50761;-76
2022/10/26 06:44:25;;;;;;;;;;;;;;;18.92;70.64;101165.45;2323361;76;51542;-75
2022/10/26 06:47:38;;;;;;;;;;;;;;;18.99;70.51;101164.78;2299935;76;51462;-74
2022/10/26 06:50:52;;;;;;;;;;;;;;;19.01;70.53;101166.76;2299468;76;51811;-74
2022/10/26 06:54:01;;;;;;;;;;;;;;;19.02;70.44;101171.96;2350371;74;51472;-74
2022/10/26 06:57:02;;;;;;;;;;;;;;;19.03;70.70;101174.96;2324090;76;50428;-75
2022/10/26 07:00:05;;;;;;;;;;;;;;;19.04;70.84;101171.80;2350686;74;51436;-75
2022/10/26 07:03:06;;;;;;;;;;;;;;;19.07;71.96;101181.66;2324022;76;51093;-74
2022/10/26 07:06:08;;;;;;;;;;;;;;;19.06;71.81;101180.00;2295127;76;51397;-75
2022/10/26 07:09:10;;;;;;;;;;;;;;;19.09;71.21;101172.95;2301029;76;51394;-75
2022/10/26 07:12:11;;;;;;;;;;;;;;;19.10;70.85;101173.27;2348990;75;50009;-75
2022/10/26 07:15:13;;;;;;;;;;;;;;;19.10;70.68;101179.14;2271754;76;50096;-74
2022/10/26 07:18:14;;;;;;;;;;;;;;;19.08;70.58;101180.64;2297383;76;50387;-75
2022/10/26 07:21:16;;;;;;;;;;;;;;;19.06;70.55;101175.98;2297519;76;51644;-76
2022/10/26 07:24:18;;;;;;;;;;;;;;;19.06;70.57;101180.00;2297335;76;50791;-75
2022/10/26 07:27:19;;;;;;;;;;;;;;;19.06;70.58;101179.14;2272215;76;51461;-75
2022/10/26 07:30:21;;;;;;;;;;;;;;;19.05;70.56;101182.34;2321718;76;51550;-75
2022/10/26 07:33:22;;;;;;;;;;;;;;;19.05;70.60;101178.83;2297265;76;51656;-75
2022/10/26 07:36:24;;;;;;;;;;;;;;;19.05;70.59;101174.80;2297493;76;50318;-75
2022/10/26 07:39:25;;;;;;;;;;;;;;;19.06;70.55;101173.78;2302240;76;49585;-75
2022/10/26 07:42:27;;;;;;;;;;;;;;;19.07;70.50;101178.16;2317510;74;49651;-74
2022/10/26 07:45:29;;;;;;;;;;;;;;;19.07;70.45;101183.01;2284753;78;51528;-74
2022/10/26 07:48:30;;;;;;;;;;;;;;;19.06;70.47;101184.51;2285057;78;50705;-75
2022/10/26 07:51:32;;;;;;;;;;;;;;;19.06;70.45;101193.90;2310885;76;51468;-75
2022/10/26 07:54:33;;;;;;;;;;;;;;;19.08;70.42;101187.86;2310763;76;50686;-75
2022/10/26 07:57:35;;;;;;;;;;;;;;;19.08;70.39;101190.55;2285209;78;51454;-75
2022/10/26 08:00:37;;;;;;;;;;;;;;;19.06;70.43;101184.03;2285011;78;51547;-74
2022/10/26 08:03:38;;;;;;;;;;;;;;;19.08;70.35;101179.81;2284780;78;49442;-74
2022/10/26 08:06:40;;;;;;;;;;;;;;;19.08;70.37;101183.84;2311721;76;50072;-73
2022/10/26 08:09:42;;;;;;;;;;;;;;;19.07;70.32;101181.66;2299823;76;50317;-75
2022/10/26 08:12:43;;;;;;;;;;;;;;;19.08;70.29;101183.84;2325377;76;50392;-74
2022/10/26 08:15:46;;;;;;;;;;;;;;;19.09;70.28;101180.17;2311740;76;49591;-74
2022/10/26 08:18:48;;;;;;;;;;;;;;;19.08;70.21;101189.20;2350774;74;51534;-74
2022/10/26 08:21:50;;;;;;;;;;;;;;;19.08;70.20;101187.86;2351560;75;50704;-74
2022/10/26 08:24:51;;;;;;;;;;;;;;;19.08;70.22;101193.22;2326925;76;51573;-75
2022/10/26 08:27:53;;;;;;;;;;;;;;;19.08;70.17;101189.20;2325663;76;50715;-75
2022/10/26 08:30:54;;;;;;;;;;;;;;;19.09;70.11;101190.89;2324378;76;52092;-75
2022/10/26 08:33:56;;;;;;;;;;;;;;;19.08;70.16;101191.88;2324393;76;51508;-73
2022/10/26 08:36:58;;;;;;;;;;;;;;;19.09;70.07;101194.92;2352499;74;51493;-74
2022/10/26 08:39:59;;;;;;;;;;;;;;;19.09;70.05;101194.41;2315165;75;51832;-74
2022/10/26 08:43:05;;;;;;;;;;;;;;;19.09;70.03;101189.05;2324293;76;50439;-74
2022/10/26 08:46:10;;;;;;;;;;;;;;;19.09;70.04;101188.22;2323757;76;51492;-74
2022/10/26 08:49:20;;;;;;;;;;;;;;;19.09;70.01;101189.05;2323817;75;50274;-74
2022/10/26 08:52:23;;;;;;;;;;;;;;;19.07;70.00;101190.23;2297881;76;49500;-75
2022/10/26 08:55:25;;;;;;;;;;;;;;;19.08;69.97;101190.55;2323605;76;51544;-74
2022/10/26 08:58:40;;;;;;;;;;;;;;;19.05;69.98;101194.41;2323668;76;50697;-75
2022/10/26 09:01:41;;;;;;;;;;;;;;;19.06;69.93;101193.90;2323642;76;51554;-75
2022/10/26 09:04:43;;;;;;;;;;;;;;;19.06;69.97;101192.55;2273777;76;51744;-75
2022/10/26 09:07:46;;;;;;;;;;;;;;;19.04;69.91;101189.23;2298708;76;50050;-74
2022/10/26 09:11:06;;;;;;;;;;;;;;;19.04;69.93;101189.23;2323785;76;50309;-75
2022/10/26 09:14:18;;;;;;;;;;;;;;;19.04;69.93;101189.23;2323464;76;51579;-75
2022/10/26 09:17:27;;;;;;;;;;;;;;;19.03;69.87;101191.05;2297347;76;49824;-74
2022/10/26 09:20:36;;;;;;;;;;;;;;;19.02;69.87;101190.73;2323200;76;50475;-75
2022/10/26 09:23:49;;;;;;;;;;;;;;;19.02;69.79;101191.25;2323451;76;50435;-75
2022/10/26 09:26:55;;;;;;;;;;;;;;;19.02;69.82;101189.39;2323345;76;52680;-75
2022/10/26 09:29:57;;;;;;;;;;;;;;;19.02;69.80;101192.59;2299295;76;51019;-75
2022/10/26 09:32:59;;;;;;;;;;;;;;;19.02;69.75;101195.27;2323708;76;51461;-75
2022/10/26 09:36:01;;;;;;;;;;;;;;;19.01;69.76;101194.92;2323426;76;50554;-75
2022/10/26 09:39:04;;;;;;;;;;;;;;;19.02;69.69;101200.63;2322902;76;51527;-75
2022/10/26 09:42:13;;;;;;;;;;;;;;;19.03;69.74;101199.61;2301546;76;49780;-75
2022/10/26 09:45:19;;;;;;;;;;;;;;;19.02;69.63;101201.47;2327341;76;50462;-75
2022/10/26 09:48:38;;;;;;;;;;;;;;;19.00;69.71;101202.64;2323663;76;50861;-74
2022/10/26 09:51:41;;;;;;;;;;;;;;;19.01;69.62;101197.59;2321656;76;51531;-75
2022/10/26 09:54:43;;;;;;;;;;;;;;;18.99;69.66;101202.33;2321721;76;22301;-76
2022/10/26 09:57:45;;;;;;;;;;;;;;;18.99;69.65;101200.98;2323631;76;50713;-75
2022/10/26 10:00:46;;;;;;;;;;;;;;;18.98;69.66;101200.63;2323631;76;51553;-75
2022/10/26 10:03:48;;;;;;;;;;;;;;;18.98;69.61;101204.14;2323462;75;51510;-75
2022/10/26 10:06:50;;;;;;;;;;;;;;;19.00;69.65;101209.35;2299363;76;51288;-75
2022/10/26 10:10:08;;;;;;;;;;;;;;;18.98;69.56;101212.70;2322212;76;50777;-76
2022/10/26 10:13:16;;;;;;;;;;;;;;;18.97;69.54;101219.92;2285724;78;51573;-75
2022/10/26 10:16:21;;;;;;;;;;;;;;;18.99;69.53;101211.71;2285895;78;51470;-75
2022/10/26 10:19:24;;;;;;;;;;;;;;;18.94;69.97;101216.24;2258038;78;52521;-76
2022/10/26 10:22:26;;;;;;;;;;;;;;;18.92;69.86;101215.57;2311585;76;49979;-75
2022/10/26 10:25:29;;;;;;;;;;;;;;;18.92;70.10;101207.02;2285489;77;50362;-75
2022/10/26 10:28:32;;;;;;;;;;;;;;;18.98;69.83;101200.13;2286205;76;50367;-75
2022/10/26 10:31:33;;;;;;;;;;;;;;;19.00;69.73;101209.35;2285733;77;49902;-76
2022/10/26 10:34:35;;;;;;;;;;;;;;;18.98;69.65;101206.83;2311498;76;51571;-76
2022/10/26 10:37:40;;;;;;;;;;;;;;;18.98;69.64;101212.70;2285633;78;50709;-76
2022/10/26 10:40:41;;;;;;;;;;;;;;;18.98;69.56;101202.80;2321999;75;22325;-75
2022/10/26 10:43:47;;;;;;;;;;;;;;;18.95;69.59;101203.66;2272688;76;51301;-76
2022/10/26 10:46:49;;;;;;;;;;;;;;;18.95;69.52;101210.37;2323880;76;50654;-75
2022/10/26 10:49:52;;;;;;;;;;;;;;;18.92;69.56;101209.70;2333987;75;50397;-76
2022/10/26 10:52:54;;;;;;;;;;;;;;;18.96;69.49;101206.19;2320703;76;50297;-75
2022/10/26 10:55:57;;;;;;;;;;;;;;;18.95;69.50;101205.00;2297675;76;50791;-75
2022/10/26 10:59:17;;;;;;;;;;;;;;;18.92;69.49;101201.66;2286024;77;51811;-75
2022/10/26 11:02:23;;;;;;;;;;;;;;;18.90;69.44;101205.00;2291105;76;50474;-75
2022/10/26 11:05:26;;;;;;;;;;;;;;;18.92;69.39;101206.19;2302319;76;50458;-75
2022/10/26 11:08:32;;;;;;;;;;;;;;;18.92;69.43;101211.55;2323353;76;50416;-76
2022/10/26 11:11:52;;;;;;;;;;;;;;;18.95;69.49;101214.39;2303486;76;49722;-76
2022/10/26 11:14:56;;;;;;;;;;;;;;;18.92;69.39;101209.70;2323770;76;50484;-75
2022/10/26 11:18:06;;;;;;;;;;;;;;;18.90;69.38;101200.98;2323965;76;50526;-75
2022/10/26 11:21:15;;;;;;;;;;;;;;;18.91;69.36;101209.38;2323985;76;51513;-75
2022/10/26 11:24:21;;;;;;;;;;;;;;;18.92;69.36;101208.36;2301001;76;52501;-76
2022/10/26 11:27:31;;;;;;;;;;;;;;;18.91;69.33;101204.02;2324214;74;50685;-75
2022/10/26 11:30:33;;;;;;;;;;;;;;;18.96;69.47;101202.16;2324201;74;50574;-74
2022/10/26 11:33:40;;;;;;;;;;;;;;;18.96;69.59;101199.48;2323862;76;51581;-74
2022/10/26 11:36:41;;;;;;;;;;;;;;;18.97;69.52;101201.66;2303221;76;51135;-75
2022/10/26 11:39:45;;;;;;;;;;;;;;;18.92;69.61;101199.48;2323634;76;50407;-76
2022/10/26 11:42:51;;;;;;;;;;;;;;;18.90;69.68;101192.94;2323415;75;51545;-75
2022/10/26 11:46:00;;;;;;;;;;;;;;;18.89;69.76;101183.23;2307947;76;50403;-74
2022/10/26 11:49:22;;;;;;;;;;;;;;;18.90;69.78;101185.41;2311558;76;51862;-75
2022/10/26 11:52:25;;;;;;;;;;;;;;;18.92;69.69;101180.20;2323917;76;51694;-75
2022/10/26 11:55:27;;;;;;;;;;;;;;;18.93;69.69;101179.69;2322726;74;51664;-77
2022/10/26 11:58:29;;;;;;;;;;;;;;;18.93;69.69;101178.34;2323976;76;51524;-75
2022/10/26 12:01:30;;;;;;;;;;;;;;;18.95;69.67;101176.84;2311043;76;49472;-76
2022/10/26 12:04:32;;;;;;;;;;;;;;;18.96;69.64;101179.37;2323801;76;50351;-74
2022/10/26 12:07:36;;;;;;;;;;;;;;;18.92;69.73;101177.52;2322791;75;51559;-75
2022/10/26 12:10:38;;;;;;;;;;;;;;;18.92;69.79;101172.16;2322816;75;51619;-77
2022/10/26 12:13:44;;;;;;;;;;;;;;;18.93;69.76;101172.51;2298873;76;51944;-76
2022/10/26 12:16:50;;;;;;;;;;;;;;;18.98;69.69;101181.86;2321679;76;51571;-75
2022/10/26 12:20:02;;;;;;;;;;;;;;;18.97;69.76;101176.17;2321510;76;51583;-75
2022/10/26 12:23:04;;;;;;;;;;;;;;;18.97;69.71;101169.47;2309498;76;50429;-75
2022/10/26 12:26:26;;;;;;;;;;;;;;;19.00;69.71;101169.95;2311338;76;51387;-74
2022/10/26 12:29:35;;;;;;;;;;;;;;;19.04;69.64;101163.75;2323505;75;50333;-76
2022/10/26 12:32:39;;;;;;;;;;;;;;;19.04;69.64;101166.44;2296409;76;50709;-77
2022/10/26 12:35:44;;;;;;;;;;;;;;;19.08;69.71;101165.89;2286716;76;51565;-76
2022/10/26 12:38:48;;;;;;;;;;;;;;;19.08;69.57;101157.02;2297161;76;50175;-76
2022/10/26 12:41:51;;;;;;;;;;;;;;;19.06;69.64;101156.34;2322369;76;51728;-76
2022/10/26 12:44:54;;;;;;;;;;;;;;;19.09;69.57;101164.91;2320939;76;51683;-76
2022/10/26 12:48:02;;;;;;;;;;;;;;;19.11;69.38;101157.52;2321752;75;51634;-76
2022/10/26 12:51:20;;;;;;;;;;;;;;;19.11;69.33;101158.00;2323059;76;50474;-76
2022/10/26 12:54:23;;;;;;;;;;;;;;;19.08;69.40;101165.06;2301246;76;52877;-75
2022/10/26 12:57:30;;;;;;;;;;;;;;;19.06;69.39;101164.39;2321857;76;51726;-74
2022/10/26 13:00:31;;;;;;;;;;;;;;;19.05;69.40;101161.39;2323869;76;52376;-75
2022/10/26 13:03:47;;;;;;;;;;;;;;;19.04;69.40;101160.56;2311305;76;51067;-76
2022/10/26 13:06:50;;;;;;;;;;;;;;;19.05;69.40;101162.73;2264655;77;51593;-75
2022/10/26 13:10:01;;;;;;;;;;;;;;;19.05;69.37;101159.54;2254563;78;50826;-74
2022/10/26 13:13:04;;;;;;;;;;;;;;;19.03;69.41;101159.38;2252235;78;50345;-75
2022/10/26 13:16:05;;;;;;;;;;;;;;;19.05;69.35;101161.39;2264472;78;50970;-75
2022/10/26 13:19:09;;;;;;;;;;;;;;;19.05;69.35;101160.05;2264015;77;50813;-75
2022/10/26 13:22:14;;;;;;;;;;;;;;;18.99;69.29;101156.73;2264694;78;50801;-75
2022/10/26 13:25:19;;;;;;;;;;;;;;;19.00;69.38;101149.01;2260735;77;51618;-75
2022/10/26 13:28:28;;;;;;;;;;;;;;;18.98;69.30;101151.02;2188642;80;51155;-76
2022/10/26 13:31:31;;;;;;;;;;;;;;;18.96;69.31;101151.21;2257958;77;50843;-76
2022/10/26 13:34:33;;;;;;;;;;;;;;;18.98;69.39;101153.19;2264448;78;50696;-74
2022/10/26 13:37:35;;;;;;;;;;;;;;;19.02;69.27;101164.42;2264046;77;50395;-75
2022/10/26 13:40:36;;;;;;;;;;;;;;;19.00;69.18;101157.88;2222614;78;51817;-76
2022/10/26 13:43:38;;;;;;;;;;;;;;;19.00;69.46;101161.08;2300479;76;50465;-76
2022/10/26 13:46:39;;;;;;;;;;;;;;;18.95;69.75;101163.44;2318106;75;50739;-75
2022/10/26 13:49:43;;;;;;;;;;;;;;;18.93;69.88;101162.26;2318551;76;51298;-75
2022/10/26 13:52:45;;;;;;;;;;;;;;;18.92;70.07;101164.62;2337480;75;51038;-75
2022/10/26 13:56:00;;;;;;;;;;;;;;;18.89;70.17;101167.14;2308261;76;50335;-76
2022/10/26 13:59:02;;;;;;;;;;;;;;;18.91;70.18;101166.98;2284816;76;50535;-76
2022/10/26 14:02:08;;;;;;;;;;;;;;;18.90;70.35;101173.34;2284759;78;51640;-75
2022/10/26 14:05:14;;;;;;;;;;;;;;;18.92;70.25;101172.66;2284617;76;49685;-76
2022/10/26 14:08:16;;;;;;;;;;;;;;;18.90;70.28;101182.21;2327565;75;51489;-76
2022/10/26 14:11:19;;;;;;;;;;;;;;;18.90;70.41;101174.67;2321510;76;50699;-75
2022/10/26 14:14:22;;;;;;;;;;;;;;;18.92;70.25;101179.37;2318263;76;52442;-76
2022/10/26 14:17:24;;;;;;;;;;;;;;;18.92;70.29;101175.34;2304738;76;52700;-76
2022/10/26 14:20:26;;;;;;;;;;;;;;;19.01;70.02;101182.85;2329455;75;50455;-76
2022/10/26 14:23:28;;;;;;;;;;;;;;;19.03;69.93;101170.94;2323538;76;50207;-75
2022/10/26 14:26:31;;;;;;;;;;;;;;;19.06;69.72;101177.80;2326916;75;52600;-75
2022/10/26 14:29:33;;;;;;;;;;;;;;;19.04;69.76;101181.19;2296729;76;52573;-74
2022/10/26 14:32:35;;;;;;;;;;;;;;;18.98;70.03;101177.84;2310763;75;51625;-75
2022/10/26 14:35:40;;;;;;;;;;;;;;;19.01;69.94;101178.83;2350731;74;50365;-75
2022/10/26 14:38:47;;;;;;;;;;;;;;;19.03;69.85;101183.01;2323053;76;22410;-76
2022/10/26 14:41:49;;;;;;;;;;;;;;;19.02;69.88;101183.20;2306406;76;51948;-76
2022/10/26 14:44:51;;;;;;;;;;;;;;;19.04;69.82;101186.04;2318770;76;50459;-76
2022/10/26 14:47:52;;;;;;;;;;;;;;;19.06;69.69;101197.92;2323080;76;50779;-75
2022/10/26 14:51:11;;;;;;;;;;;;;;;19.04;70.18;101198.63;2323605;75;50411;-75
2022/10/26 14:54:19;;;;;;;;;;;;;;;19.03;70.11;101195.08;2311255;75;50147;-75
2022/10/26 14:57:30;;;;;;;;;;;;;;;19.04;70.01;101206.16;2300359;76;49644;-75
2022/10/26 15:00:32;;;;;;;;;;;;;;;19.04;70.01;101206.67;2321152;75;50821;-77
2022/10/26 15:03:34;;;;;;;;;;;;;;;19.01;70.24;101206.51;2321718;76;51550;-78
2022/10/26 15:06:37;;;;;;;;;;;;;;;19.04;70.95;101206.67;2323845;75;52604;-76
2022/10/26 15:09:45;;;;;;;;;;;;;;;19.06;70.87;101205.48;2322495;76;51571;-76
2022/10/26 15:12:47;;;;;;;;;;;;;;;19.11;70.81;101208.97;2323994;76;50494;-77
2022/10/26 15:15:48;;;;;;;;;;;;;;;19.12;70.47;101206.64;2323978;76;50425;-75
2022/10/26 15:18:50;;;;;;;;;;;;;;;19.15;70.75;101206.28;2342430;74;49620;-75
2022/10/26 15:21:52;;;;;;;;;;;;;;;19.15;70.56;101211.14;2384603;74;51568;-73
2022/10/26 15:24:54;;;;;;;;;;;;;;;19.15;70.82;101210.30;2384281;74;52220;-75
2022/10/26 15:27:58;;;;;;;;;;;;;;;19.18;70.61;101207.78;2384610;73;50180;-74
2022/10/26 15:31:00;;;;;;;;;;;;;;;19.21;70.34;101217.66;2283108;76;51783;-74
2022/10/26 15:34:06;;;;;;;;;;;;;;;19.21;70.18;101214.97;2323787;76;51615;-74
2022/10/26 15:37:08;;;;;;;;;;;;;;;19.22;70.46;101205.92;2324197;76;50587;-74
2022/10/26 15:40:10;;;;;;;;;;;;;;;19.24;70.36;101204.39;2323379;76;50762;-74
2022/10/26 15:43:11;;;;;;;;;;;;;;;19.25;70.23;101217.65;2336007;76;49355;-74